Dennis Port, MA

7:39 AM EST on January 18, 2017 (GMT -0500)
KT1OK @ Yenom Rd, South Dennis | | Change Station
Active Advisory: Small Craft Advisory Active Notice: Public Information Statement

Elev 50 ft 41.67 °N, 70.15 °W | Updated 2 seconds ago

Overcast
Overcast
39.9 °F
Feels Like 40 °F
N
0.0
Wind Variable Wind from NNE
Gusts 0.0 mph

Today
High -- | Low -- °F
--% Chance of Precip.
Yesterday
High -- | Low -- °F
Precip. -- in
Pressure 29.93 in
Visibility 10.0 miles
Clouds Overcast 800 ft
Windchill 40 °F
Dew Point 39 °F
Humidity 96%
Rainfall 0.15 in
Snow Depth Not available.
7:03 AM 4:39 PM
Waning Gibbous, 63% visible
METAR KHYA 181156Z AUTO 05007G15KT 10SM OVC008 04/03 A2993 RMK AO2 RAE11 SLP135 P0000 60010 70030 T00440033 10044 20039 55009
Pressure 29.93 in
Visibility 10.0 miles
Clouds Overcast 800 ft
Windchill 40 °F
Dew Point 39 °F
Humidity 96%
Rainfall 0.15 in
Snow Depth Not available.
7:03 AM 4:39 PM
Waning Gibbous, 63% visible
METAR KHYA 181156Z AUTO 05007G15KT 10SM OVC008 04/03 A2993 RMK AO2 RAE11 SLP135 P0000 60010 70030 T00440033 10044 20039 55009

Get Your Daily Forecast Email!

Thanks for signing up!

Be on the lookout for a verification email in your inbox.

You'll start receiving the daily forecast at 8 AM.

×

10-Day Weather Forecast

Almanac

Astronomy

Jan. 18, 2017 Rise Set
Actual Time
Civil Twilight
Nautical Twilight
Astronomical Twilight
Moon
Length of Visible Light
Length of Day
Tomorrow will be .
, % of the Moon is Illuminated

Today's Extremes

State Highs State Lows

Community

WunderPhotos

Upload Photos

1,962,540 photos uploaded!

WunderBlog® & News

Nearby

Air Quality

  Air Quality AQ Index Pollutant
Not available.

Snow Depth

Station Depth Elevation

Earthquake Activity

City Distance Mag. Time & Date
Minimum magnitude displayed is 2.5.

Coastal Water Temperatures

Place Temperature

Stations

Nearby Weather Stations

Station Location Temp. Windchill Dew Point Humidity Wind Precip. Elev Updated Type
                   

Watches & Warnings

Small Craft Advisory
Issued: 3:54 AM EST Jan. 18, 2017 – National Weather Service

... Small Craft Advisory in effect until 7 PM EST this evening...
... Gale Warning is cancelled...

The National Weather Service in Taunton has issued a Small Craft
Advisory... which is in effect until 7 PM EST this evening. The
Gale Warning has been cancelled.

* Winds and seas... east winds 15 to 20 kt with gusts up to 30 kt.
Seas 2 to 4 feet.

Precautionary/preparedness actions...

A Small Craft Advisory means that wind speeds of 25 to 33 knots
are expected to produce hazardous wave conditions to small craft.
Inexperienced mariners... especially those operating smaller
vessels should avoid navigating in these conditions.